Time;durP1;ratioP1;P1;durP2;ratioP2;P2;SDS_P1;SDS_P2;PMS_P1;PMS_P2;Temp;Humidity;BMP_temperature;BMP_pressure;BME280_temperature;BME280_humidity;BME280_pressure;Samples;Min_cycle;Max_cycle;Signal;HPM_P1;HPM_P2
2022/08/03 00:00:34;;;;;;;2.80;2.53;;;;;;;22.63;47.85;97290.97;4907099;28;20162;-75
2022/08/03 00:02:59;;;;;;;2.85;2.30;;;;;;;22.56;48.05;97298.66;4903199;28;20431;-75
2022/08/03 00:05:24;;;;;;;2.42;2.22;;;;;;;22.54;48.31;97294.78;4907349;28;20188;-75
2022/08/03 00:07:50;;;;;;;2.47;2.28;;;;;;;22.48;48.20;97288.84;4925026;28;20622;-75
2022/08/03 00:10:16;;;;;;;3.72;2.20;;;;;;;22.44;48.22;97291.38;4925866;28;20255;-75
2022/08/03 00:12:41;;;;;;;2.72;2.25;;;;;;;22.41;48.49;97288.56;4914811;28;20225;-75
2022/08/03 00:15:07;;;;;;;2.47;2.28;;;;;;;22.43;48.25;97294.34;4906955;28;20189;-75
2022/08/03 00:17:32;;;;;;;2.33;2.13;;;;;;;22.42;48.61;97290.16;4939525;28;20337;-75
2022/08/03 00:19:58;;;;;;;2.45;2.25;;;;;;;22.42;48.42;97290.16;4942011;28;20286;-75
2022/08/03 00:22:23;;;;;;;2.80;2.38;;;;;;;22.38;48.54;97287.34;4905989;28;20217;-74
2022/08/03 00:24:48;;;;;;;2.88;2.67;;;;;;;22.28;49.03;97287.72;4926434;28;20172;-75
2022/08/03 00:27:14;;;;;;;2.80;2.60;;;;;;;22.23;49.32;97285.97;4928415;28;20123;-75
2022/08/03 00:29:39;;;;;;;3.08;2.42;;;;;;;22.18;49.55;97286.13;4943426;28;20650;-74
2022/08/03 00:32:05;;;;;;;2.90;2.70;;;;;;;22.14;49.67;97279.94;4924929;28;20660;-75
2022/08/03 00:34:30;;;;;;;2.58;2.38;;;;;;;22.14;49.30;97285.22;4927946;28;20802;-75
2022/08/03 00:36:56;;;;;;;2.80;2.60;;;;;;;22.15;49.38;97278.81;4926043;28;20241;-75
2022/08/03 00:39:21;;;;;;;2.63;2.42;;;;;;;22.14;49.32;97279.94;4927464;28;20178;-75
2022/08/03 00:41:47;;;;;;;2.20;2.10;;;;;;;22.11;49.46;97275.25;4927680;28;20183;-75
2022/08/03 00:44:12;;;;;;;2.00;1.85;;;;;;;22.10;49.52;97281.63;4923690;28;20639;-75
2022/08/03 00:46:38;;;;;;;2.42;2.30;;;;;;;22.09;49.34;97269.50;4923652;28;20193;-75
2022/08/03 00:49:03;;;;;;;2.60;2.40;;;;;;;22.08;49.58;97267.91;4924190;28;20398;-75
2022/08/03 00:51:29;;;;;;;2.75;2.55;;;;;;;22.04;49.64;97273.09;4924455;28;20213;-74
2022/08/03 00:53:54;;;;;;;2.45;2.25;;;;;;;22.01;49.59;97268.41;4924230;28;20319;-75
2022/08/03 00:56:19;;;;;;;2.63;2.42;;;;;;;22.01;49.75;97272.94;4924234;28;20276;-75
2022/08/03 00:58:45;;;;;;;2.25;2.13;;;;;;;22.03;49.52;97266.22;4926638;28;20169;-75
2022/08/03 01:01:11;;;;;;;2.70;2.50;;;;;;;22.04;49.38;97267.00;4928270;28;20278;-75
2022/08/03 01:03:37;;;;;;;2.35;2.15;;;;;;;22.01;49.83;97264.97;4911582;28;20165;-75
2022/08/03 01:06:21;;;;;;;2.60;2.40;;;;;;;21.81;50.36;97259.25;4927668;28;20429;-75
2022/08/03 01:09:14;;;;;;;2.80;2.60;;;;;;;21.73;50.61;97264.56;4927843;28;20221;-75
2022/08/03 01:12:01;;;;;;;2.50;2.30;;;;;;;21.69;50.84;97265.22;4927932;28;20225;-75
2022/08/03 01:14:37;;;;;;;2.60;2.40;;;;;;;21.69;50.92;97261.78;4911588;28;20254;-75
2022/08/03 01:17:20;;;;;;;3.22;2.92;;;;;;;21.62;51.22;97264.13;4910886;28;20663;-75
2022/08/03 01:20:00;;;;;;;2.30;2.20;;;;;;;21.58;51.41;97257.91;4927626;28;20627;-75
2022/08/03 01:23:03;;;;;;;3.05;2.72;;;;;;;21.60;51.37;97261.78;4911350;28;20726;-75
2022/08/03 01:25:48;;;;;;;2.67;2.47;;;;;;;21.65;51.13;97263.50;4910949;28;20339;-75
2022/08/03 01:28:38;;;;;;;2.85;2.65;;;;;;;21.64;51.25;97259.28;4927259;28;20198;-75
2022/08/03 01:31:07;;;;;;;2.80;2.60;;;;;;;21.72;50.81;97249.78;4926414;28;20201;-75
2022/08/03 01:33:39;;;;;;;2.78;2.58;;;;;;;21.65;51.24;97250.25;4927183;28;20201;-75
2022/08/03 01:36:09;;;;;;;2.60;2.40;;;;;;;21.64;51.16;97251.34;4927403;28;20186;-75
2022/08/03 01:38:44;;;;;;;3.20;2.13;;;;;;;21.58;51.50;97257.91;4926877;28;20283;-75
2022/08/03 01:41:14;;;;;;;2.50;2.30;;;;;;;21.61;51.52;97247.47;4927305;28;20321;-75
2022/08/03 01:43:42;;;;;;;2.75;2.40;;;;;;;21.64;51.58;97243.38;4909597;28;20228;-75
2022/08/03 01:46:08;;;;;;;2.60;2.40;;;;;;;21.66;51.49;97238.53;4907711;28;20170;-75
2022/08/03 01:48:35;;;;;;;2.60;2.40;;;;;;;21.64;51.66;97240.75;4907017;28;20294;-75
2022/08/03 01:51:00;;;;;;;2.50;2.30;;;;;;;21.70;51.65;97236.84;4907664;28;20709;-75
2022/08/03 01:53:26;;;;;;;2.60;2.40;;;;;;;21.68;51.76;97236.38;4891473;28;20362;-75
2022/08/03 01:55:53;;;;;;;2.88;2.67;;;;;;;21.65;51.90;97237.78;4923649;28;20201;-74
2022/08/03 01:58:19;;;;;;;2.83;2.60;;;;;;;21.70;51.70;97234.19;4907142;28;20209;-75
2022/08/03 02:00:47;;;;;;;2.90;2.70;;;;;;;21.68;51.61;97233.72;4907446;28;20151;-75
2022/08/03 02:03:13;;;;;;;2.90;2.70;;;;;;;21.68;51.68;97236.38;4923577;28;20697;-75
2022/08/03 02:05:39;;;;;;;2.70;2.50;;;;;;;21.65;51.42;97235.13;4908977;28;20716;-75
2022/08/03 02:08:07;;;;;;;2.97;2.70;;;;;;;21.60;51.28;97230.00;4923109;28;20294;-75
2022/08/03 02:10:33;;;;;;;2.60;2.40;;;;;;;21.64;51.71;97230.13;4907381;28;20268;-75
2022/08/03 02:13:00;;;;;;;3.08;2.70;;;;;;;21.59;52.11;97227.66;4923346;28;20245;-75
2022/08/03 02:15:26;;;;;;;6.75;2.85;;;;;;;21.62;52.17;97221.72;4923494;28;20201;-75
2022/08/03 02:17:52;;;;;;;5.30;2.67;;;;;;;21.61;52.25;97230.75;4922459;28;20639;-75
2022/08/03 02:20:18;;;;;;;4.25;2.53;;;;;;;21.56;51.82;97230.94;4923373;28;20335;-75
2022/08/03 02:22:43;;;;;;;2.63;2.42;;;;;;;21.52;51.82;97249.31;4907168;28;20759;-75
2022/08/03 02:25:14;;;;;;;3.00;2.80;;;;;;;21.32;52.13;97240.13;4891000;28;20189;-75
2022/08/03 02:27:45;;;;;;;3.03;2.80;;;;;;;21.29;52.36;97240.75;4906661;28;20244;-75
2022/08/03 02:30:11;;;;;;;2.90;2.67;;;;;;;21.37;52.40;97237.34;4906907;28;20205;-75
2022/08/03 02:32:40;;;;;;;3.13;2.63;;;;;;;21.27;52.87;97237.66;4906903;28;20733;-75
2022/08/03 02:35:10;;;;;;;2.92;2.72;;;;;;;21.20;53.07;97230.16;4906864;28;20136;-75
2022/08/03 02:37:43;;;;;;;4.50;3.03;;;;;;;21.10;53.08;97231.25;4906645;28;20163;-74
2022/08/03 02:40:10;;;;;;;3.25;3.05;;;;;;;21.13;53.08;97227.22;4906989;28;20197;-74
2022/08/03 02:42:37;;;;;;;3.03;2.83;;;;;;;21.11;53.28;97232.81;4922878;28;20187;-75
2022/08/03 02:45:05;;;;;;;3.25;2.95;;;;;;;21.03;53.55;97230.94;4906629;28;20174;-74
2022/08/03 02:47:31;;;;;;;3.20;3.00;;;;;;;21.06;53.54;97225.03;4906091;28;20651;-74
2022/08/03 02:49:57;;;;;;;3.20;2.90;;;;;;;21.02;53.80;97226.72;4906497;28;20242;-75
2022/08/03 02:52:27;;;;;;;3.40;3.10;;;;;;;20.90;54.04;97224.69;4906334;28;20188;-74
2022/08/03 02:54:55;;;;;;;3.35;3.05;;;;;;;20.90;54.00;97224.69;4906127;28;20200;-74
2022/08/03 02:57:22;;;;;;;2.97;2.78;;;;;;;20.92;54.09;97221.75;4905844;28;20327;-74
2022/08/03 02:59:47;;;;;;;2.78;2.58;;;;;;;20.96;53.91;97225.34;4890559;28;20166;-74
2022/08/03 03:02:14;;;;;;;2.75;2.55;;;;;;;20.92;53.90;97222.53;4906497;28;20221;-75
2022/08/03 03:04:41;;;;;;;3.10;2.80;;;;;;;20.90;54.19;97221.28;4906555;28;20356;-74
2022/08/03 03:07:06;;;;;;;2.90;2.70;;;;;;;20.91;54.28;97222.84;4890005;28;20226;-74
2022/08/03 03:09:33;;;;;;;2.75;2.55;;;;;;;20.92;54.13;97222.53;4906126;28;20353;-74
2022/08/03 03:11:59;;;;;;;2.80;2.60;;;;;;;20.95;54.09;97224.53;4922511;28;20216;-74
2022/08/03 03:14:25;;;;;;;2.92;2.72;;;;;;;20.98;53.76;97228.44;4905984;28;20213;-75
2022/08/03 03:16:51;;;;;;;2.97;2.78;;;;;;;20.97;53.98;97218.94;4922092;28;20193;-75
2022/08/03 03:19:18;;;;;;;2.80;2.60;;;;;;;20.96;53.96;97222.69;4905986;28;20191;-76
2022/08/03 03:21:43;;;;;;;2.80;2.50;;;;;;;20.99;53.90;97222.06;4907903;28;20205;-75
2022/08/03 03:24:09;;;;;;;2.80;2.58;;;;;;;20.95;53.78;97223.78;4906470;28;20221;-75
2022/08/03 03:26:34;;;;;;;2.67;2.47;;;;;;;20.95;53.91;97219.25;4889399;28;20190;-75
2022/08/03 03:29:01;;;;;;;3.17;2.88;;;;;;;20.95;54.12;97216.59;4922288;28;20252;-75
2022/08/03 03:31:27;;;;;;;3.85;3.25;;;;;;;20.98;53.97;97220.50;4890024;28;20648;-75
2022/08/03 03:33:52;;;;;;;2.70;2.50;;;;;;;21.04;53.20;97218.47;4906041;28;20186;-75
2022/08/03 03:36:18;;;;;;;2.90;2.70;;;;;;;21.00;53.10;97225.50;4921914;28;20205;-75
2022/08/03 03:38:43;;;;;;;3.03;2.83;;;;;;;20.95;53.53;97221.91;4905899;28;20297;-75
2022/08/03 03:41:09;;;;;;;2.45;2.20;;;;;;;20.90;53.79;97229.22;4907869;28;20194;-75
2022/08/03 03:43:34;;;;;;;3.20;2.90;;;;;;;20.86;54.24;97228.28;4889669;28;20276;-75
2022/08/03 03:46:03;;;;;;;3.03;2.72;;;;;;;20.89;53.58;97225.78;4921913;28;20247;-75
2022/08/03 03:48:29;;;;;;;3.28;2.97;;;;;;;20.89;53.91;97230.31;4905076;28;20671;-75
2022/08/03 03:50:56;;;;;;;3.38;3.08;;;;;;;20.85;53.96;97226.72;4922311;28;20214;-75
2022/08/03 03:53:21;;;;;;;3.03;2.67;;;;;;;20.83;54.13;97224.38;4921924;28;20722;-75
2022/08/03 03:55:47;;;;;;;3.88;2.90;;;;;;;20.73;54.01;97227.31;4910491;28;20230;-76
2022/08/03 03:58:12;;;;;;;2.72;2.53;;;;;;;20.70;54.32;97238.50;4917697;28;20271;-75
2022/08/03 04:00:37;;;;;;;4.07;2.95;;;;;;;20.68;54.47;97225.63;4928915;28;20679;-75
2022/08/03 04:03:03;;;;;;;2.63;2.42;;;;;;;20.66;54.42;97229.66;4931029;28;20184;-75
2022/08/03 04:11:08;;;;;;;3.03;2.78;;;;;;;20.39;55.05;97228.75;4928984;28;20282;-75
2022/08/03 04:13:39;;;;;;;3.08;2.78;;;;;;;20.42;55.15;97228.16;4930580;28;20278;-75
2022/08/03 04:16:06;;;;;;;2.95;2.75;;;;;;;20.48;55.10;97224.28;4928482;28;20638;-75
2022/08/03 04:18:33;;;;;;;3.55;3.25;;;;;;;20.50;55.20;97226.63;4928480;28;20297;-75
2022/08/03 04:21:02;;;;;;;2.83;2.63;;;;;;;20.49;55.18;97225.84;4928991;28;20299;-75
2022/08/03 04:23:30;;;;;;;3.15;2.83;;;;;;;20.52;55.34;97233.16;4912452;28;20296;-76
2022/08/03 04:25:56;;;;;;;4.15;2.90;;;;;;;20.56;55.31;97230.69;4928482;28;20255;-75
2022/08/03 04:28:22;;;;;;;3.20;2.90;;;;;;;20.62;55.22;97226.03;4928319;28;20209;-75
2022/08/03 04:30:49;;;;;;;3.13;2.92;;;;;;;20.63;55.02;97231.06;4928544;28;20227;-76
2022/08/03 04:33:15;;;;;;;3.15;2.90;;;;;;;20.68;54.97;97235.41;4928668;28;20264;-75
2022/08/03 04:35:43;;;;;;;3.17;2.88;;;;;;;20.69;55.08;97234.31;4928314;28;20215;-75
2022/08/03 04:38:12;;;;;;;3.40;3.10;;;;;;;20.68;54.98;97236.22;4912198;28;20278;-75
2022/08/03 04:40:40;;;;;;;3.00;2.70;;;;;;;20.79;54.78;97238.56;4928331;28;20215;-76
2022/08/03 04:43:07;;;;;;;3.38;3.17;;;;;;;20.85;54.84;97229.38;4928366;28;20276;-74
2022/08/03 04:45:33;;;;;;;2.80;2.60;;;;;;;20.93;54.75;97232.03;4924903;28;20217;-74
2022/08/03 04:47:58;;;;;;;2.80;2.60;;;;;;;21.01;54.57;97240.28;4908134;28;20178;-74
2022/08/03 04:50:24;;;;;;;3.10;2.83;;;;;;;21.05;54.55;97239.34;4908474;28;20284;-74
2022/08/03 04:52:49;;;;;;;2.83;2.63;;;;;;;21.12;54.27;97241.53;4908702;28;20191;-74
2022/08/03 04:55:28;;;;;;;2.90;2.70;;;;;;;21.03;54.65;97238.88;4924873;28;20166;-74
2022/08/03 04:57:54;;;;;;;3.38;3.08;;;;;;;21.25;54.42;97245.91;4924328;28;20286;-74
2022/08/03 05:00:20;;;;;;;3.33;3.05;;;;;;;21.32;54.19;97240.13;4923972;28;20205;-74
2022/08/03 05:02:45;;;;;;;3.35;3.00;;;;;;;21.38;54.02;97238.09;4924080;28;20292;-74
2022/08/03 05:05:11;;;;;;;2.97;2.78;;;;;;;21.45;53.91;97244.47;4907535;28;20640;-74
2022/08/03 05:07:36;;;;;;;3.30;3.00;;;;;;;21.51;53.99;97251.19;4922403;28;20186;-74
2022/08/03 05:10:07;;;;;;;2.90;2.58;;;;;;;21.49;54.20;97253.41;4923608;28;20981;-74
2022/08/03 05:12:32;;;;;;;3.10;2.80;;;;;;;21.66;54.67;97244.66;4909345;28;20249;-74
2022/08/03 05:14:57;;;;;;;3.00;2.80;;;;;;;21.76;54.52;97253.34;4923644;28;20216;-74
2022/08/03 05:17:23;;;;;;;3.28;3.00;;;;;;;21.83;54.13;97251.78;4923010;28;20647;-74
2022/08/03 05:19:48;;;;;;;3.60;3.30;;;;;;;21.92;53.85;97246.44;4909070;28;20538;-74
2022/08/03 05:22:13;;;;;;;2.70;2.50;;;;;;;21.96;53.48;97250.03;4909193;28;20081;-74
2022/08/03 05:24:39;;;;;;;2.78;2.58;;;;;;;22.05;52.91;97252.63;4908904;28;20346;-74
2022/08/03 05:27:04;;;;;;;3.20;2.90;;;;;;;22.12;52.48;97244.19;4922985;28;20623;-74
2022/08/03 05:29:29;;;;;;;2.60;2.40;;;;;;;22.21;50.99;97247.63;4923417;28;20213;-74
2022/08/03 05:31:55;;;;;;;2.83;2.63;;;;;;;22.26;51.41;97250.84;4923216;28;20197;-74
2022/08/03 05:34:20;;;;;;;2.78;2.40;;;;;;;22.33;51.06;97246.94;4923463;28;20213;-74
2022/08/03 05:36:45;;;;;;;2.80;2.60;;;;;;;22.37;50.86;97242.56;4922701;28;20221;-74
2022/08/03 05:39:11;;;;;;;2.65;2.45;;;;;;;22.50;50.59;97248.75;4923349;28;20212;-74
2022/08/03 05:41:36;;;;;;;3.00;2.60;;;;;;;22.65;50.25;97250.06;4923161;28;20276;-74
2022/08/03 05:44:02;;;;;;;2.67;2.47;;;;;;;22.78;49.65;97251.72;4923152;28;20265;-73
2022/08/03 05:46:27;;;;;;;3.10;2.85;;;;;;;22.90;48.96;97257.09;4922937;28;20213;-74
2022/08/03 05:48:53;;;;;;;3.35;2.60;;;;;;;23.04;49.55;97256.06;4909090;28;20292;-74
2022/08/03 05:51:18;;;;;;;3.03;2.30;;;;;;;23.12;49.04;97255.28;4923906;28;20692;-74
2022/08/03 05:53:44;;;;;;;3.00;2.72;;;;;;;23.17;49.11;97255.06;4907589;28;20744;-74
2022/08/03 05:56:10;;;;;;;3.40;2.70;;;;;;;23.23;48.71;97253.75;4891332;28;20170;-74
2022/08/03 05:58:35;;;;;;;2.88;2.67;;;;;;;23.31;49.02;97255.56;4909311;28;20166;-74
2022/08/03 06:01:01;;;;;;;3.10;2.80;;;;;;;23.37;49.18;97256.13;4909211;28;20205;-74
2022/08/03 06:03:26;;;;;;;3.15;2.60;;;;;;;23.44;49.14;97253.75;4923580;28;20358;-74
2022/08/03 06:05:53;;;;;;;3.03;2.83;;;;;;;23.52;49.09;97260.09;4923444;28;20218;-74
2022/08/03 06:08:18;;;;;;;2.90;2.70;;;;;;;23.64;49.62;97262.78;4923466;28;20213;-74
2022/08/03 06:10:44;;;;;;;3.05;2.72;;;;;;;23.79;49.81;97257.97;4927053;28;20172;-74
2022/08/03 06:13:09;;;;;;;3.13;2.83;;;;;;;23.92;49.34;97251.56;4926743;28;20192;-74
2022/08/03 06:15:35;;;;;;;3.10;2.80;;;;;;;24.09;49.52;97245.28;4926765;28;20284;-74
2022/08/03 06:18:00;;;;;;;3.08;2.80;;;;;;;24.23;48.90;97245.75;4925429;28;20611;-75
2022/08/03 06:20:26;;;;;;;3.30;3.08;;;;;;;24.36;48.28;97249.19;4926529;28;20283;-74
2022/08/03 06:22:51;;;;;;;3.00;2.70;;;;;;;24.55;47.89;97255.88;4926407;28;20227;-74
2022/08/03 06:25:19;;;;;;;3.55;2.97;;;;;;;24.72;47.94;97238.88;4926787;28;20288;-74
2022/08/03 06:27:44;;;;;;;2.80;2.60;;;;;;;24.92;47.08;97248.63;4942979;28;20280;-74
2022/08/03 06:30:11;;;;;;;2.35;2.15;;;;;;;25.04;44.51;97245.16;4910725;28;20706;-74
2022/08/03 06:32:40;;;;;;;2.28;1.90;;;;;;;25.19;43.85;97246.31;4926680;28;20239;-75
2022/08/03 06:35:07;;;;;;;2.22;2.13;;;;;;;25.46;43.30;97247.44;4910506;28;20721;-74
2022/08/03 06:37:58;;;;;;;3.08;2.42;;;;;;;25.55;42.69;97253.44;4926517;28;20874;-74
2022/08/03 06:40:30;;;;;;;2.00;1.80;;;;;;;25.98;42.14;97254.53;4908260;28;20217;-75
2022/08/03 06:43:00;;;;;;;2.50;2.30;;;;;;;26.16;41.32;97243.53;4942810;28;20652;-74
2022/08/03 06:45:30;;;;;;;1.95;1.85;;;;;;;26.59;40.33;97251.75;4908526;28;20197;-74
2022/08/03 06:48:07;;;;;;;2.30;2.15;;;;;;;26.79;39.80;97245.34;4926319;28;20287;-74
2022/08/03 06:50:33;;;;;;;1.92;1.83;;;;;;;27.12;38.75;97248.69;4926412;28;20410;-74
2022/08/03 06:52:59;;;;;;;2.30;2.10;;;;;;;27.43;38.38;97250.47;4926270;28;20376;-74
2022/08/03 06:55:25;;;;;;;2.00;1.75;;;;;;;27.61;37.29;97251.59;4926205;28;20737;-74
2022/08/03 06:57:50;;;;;;;2.42;1.90;;;;;;;27.86;36.42;97248.56;4890075;28;20204;-74
2022/08/03 07:00:16;;;;;;;2.33;1.77;;;;;;;28.13;36.02;97256.69;4907157;28;20165;-74
2022/08/03 07:02:42;;;;;;;1.85;1.75;;;;;;;28.39;35.86;97254.06;4906835;28;20262;-74
2022/08/03 07:05:08;;;;;;;2.30;2.00;;;;;;;28.56;35.68;97258.13;4890797;28;20620;-75
2022/08/03 07:07:34;;;;;;;2.40;2.30;;;;;;;28.88;36.23;97252.47;4906254;28;20270;-74
2022/08/03 07:09:59;;;;;;;2.08;1.98;;;;;;;29.21;36.20;97259.00;4890671;28;20299;-74
2022/08/03 07:12:26;;;;;;;2.03;1.92;;;;;;;29.31;34.88;97266.41;4908553;28;20218;-75
2022/08/03 07:14:52;;;;;;;2.47;2.10;;;;;;;29.61;34.49;97265.59;4906581;28;20209;-74
2022/08/03 07:17:17;;;;;;;2.25;1.95;;;;;;;29.88;33.71;97260.88;4907062;28;20087;-74
2022/08/03 07:19:42;;;;;;;2.30;2.10;;;;;;;30.13;34.15;97262.25;4925064;28;20182;-75
2022/08/03 07:22:08;;;;;;;2.80;2.13;;;;;;;30.41;33.10;97265.19;4925393;28;20695;-75
2022/08/03 07:24:33;;;;;;;2.20;2.00;;;;;;;30.91;32.80;97264.69;4905739;28;20318;-75
2022/08/03 07:26:59;;;;;;;2.33;2.22;;;;;;;30.90;32.94;97265.09;4924955;28;20579;-76
2022/08/03 07:29:24;;;;;;;2.85;2.08;;;;;;;31.13;32.25;97262.91;4940666;28;20189;-75
2022/08/03 07:31:50;;;;;;;2.35;2.25;;;;;;;31.27;31.21;97266.81;4908190;28;20173;-76
2022/08/03 07:34:15;;;;;;;2.33;2.00;;;;;;;31.24;31.29;97259.50;4908490;28;20567;-75
2022/08/03 07:36:43;;;;;;;2.10;2.00;;;;;;;31.39;31.28;97265.69;4924805;28;20283;-76
2022/08/03 07:39:09;;;;;;;2.20;2.03;;;;;;;31.34;30.22;97259.53;4909598;28;20197;-76
2022/08/03 07:41:34;;;;;;;2.80;2.05;;;;;;;31.65;31.37;97264.63;4926730;28;20771;-75
2022/08/03 07:43:59;;;;;;;2.08;1.90;;;;;;;31.86;30.49;97259.28;4921767;28;20205;-76
2022/08/03 07:46:25;;;;;;;2.38;2.28;;;;;;;32.25;30.54;97263.16;4921533;28;20651;-76
2022/08/03 07:48:51;;;;;;;2.30;2.10;;;;;;;32.10;29.18;97263.19;4896335;28;20283;-75
2022/08/03 07:51:19;;;;;;;2.53;1.98;;;;;;;31.98;29.92;97265.44;4906619;28;20668;-76
2022/08/03 07:53:44;;;;;;;2.17;2.08;;;;;;;32.25;29.89;97266.66;4908941;28;20208;-76
2022/08/03 07:56:10;;;;;;;2.10;2.00;;;;;;;32.13;30.26;97266.25;4924394;28;20169;-75
2022/08/03 07:58:35;;;;;;;2.00;1.80;;;;;;;31.89;29.84;97263.13;4924859;28;20216;-76
2022/08/03 08:01:01;;;;;;;1.67;1.58;;;;;;;32.00;29.98;97263.16;4908973;28;20343;-76
2022/08/03 08:03:26;;;;;;;2.22;2.08;;;;;;;32.23;29.29;97262.78;4925057;28;20197;-75
2022/08/03 08:05:52;;;;;;;2.53;2.42;;;;;;;32.44;29.38;97265.47;4924717;28;20400;-76
2022/08/03 08:08:19;;;;;;;1.92;1.83;;;;;;;32.63;27.93;97258.16;4906519;28;20274;-76
2022/08/03 08:10:45;;;;;;;2.00;1.90;;;;;;;32.40;28.27;97262.00;4908775;28;20196;-76
2022/08/03 08:13:10;;;;;;;2.10;2.00;;;;;;;33.04;28.00;97263.81;4925029;28;20233;-76
2022/08/03 08:15:36;;;;;;;2.88;1.60;;;;;;;33.30;27.24;97263.72;4908790;28;20294;-76
2022/08/03 08:18:01;;;;;;;1.60;1.50;;;;;;;33.55;27.49;97256.28;4923400;28;20196;-76
2022/08/03 08:20:31;;;;;;;1.92;1.83;;;;;;;33.33;26.95;97258.31;4922519;28;20178;-75
2022/08/03 08:23:02;;;;;;;2.00;1.90;;;;;;;33.45;26.40;97259.81;4892494;28;20259;-76
2022/08/03 08:25:29;;;;;;;2.22;2.13;;;;;;;33.78;26.32;97252.28;4908821;28;20212;-76
2022/08/03 08:27:55;;;;;;;2.00;1.88;;;;;;;34.04;26.85;97253.63;4923242;28;20768;-76
2022/08/03 08:30:22;;;;;;;1.98;1.88;;;;;;;34.30;25.89;97251.50;4924816;28;20324;-75
2022/08/03 08:32:48;;;;;;;2.30;2.20;;;;;;;34.35;25.59;97253.78;4924209;28;20571;-76
2022/08/03 08:35:14;;;;;;;2.22;1.90;;;;;;;34.19;25.35;97253.50;4924661;28;20178;-75
2022/08/03 08:37:40;;;;;;;2.05;1.95;;;;;;;34.47;25.11;97250.56;4924922;28;20189;-75
2022/08/03 08:40:06;;;;;;;3.60;2.22;;;;;;;34.83;24.66;97249.47;4925384;28;20199;-76
2022/08/03 08:42:32;;;;;;;5.13;2.20;;;;;;;34.76;24.92;97249.53;4928702;28;20169;-75
2022/08/03 08:44:59;;;;;;;3.22;1.92;;;;;;;34.83;25.02;97247.50;4925488;28;20300;-76
2022/08/03 08:47:25;;;;;;;2.35;2.17;;;;;;;35.03;24.20;97253.09;4908677;28;20197;-76
2022/08/03 08:49:55;;;;;;;2.33;2.17;;;;;;;34.94;23.87;97252.03;4915960;28;20353;-75
2022/08/03 08:52:25;;;;;;;3.10;2.67;;;;;;;34.89;23.93;97254.03;4928414;28;20272;-75
2022/08/03 08:54:54;;;;;;;3.05;2.85;;;;;;;35.21;24.46;97252.88;4912349;28;20283;-75
2022/08/03 08:57:20;;;;;;;2.50;2.40;;;;;;;35.39;23.69;97252.66;4928040;28;20285;-76
2022/08/03 08:59:45;;;;;;;73.03;25.67;;;;;;;35.25;23.75;97253.63;4928375;28;20654;-76
2022/08/03 09:02:11;;;;;;;33.35;10.93;;;;;;;35.06;23.78;97255.00;4912451;28;20192;-75
2022/08/03 09:04:38;;;;;;;3.70;2.72;;;;;;;35.33;22.80;97237.28;4926647;28;20205;-75
2022/08/03 09:07:04;;;;;;;15.27;7.68;;;;;;;35.81;23.68;97238.91;4911710;28;20279;-75
2022/08/03 09:09:30;;;;;;;2.70;2.50;;;;;;;36.26;22.62;97235.91;4912069;28;20259;-75
2022/08/03 09:11:55;;;;;;;7.38;4.38;;;;;;;36.19;23.01;97244.88;4895883;28;20166;-75
2022/08/03 09:14:21;;;;;;;20.77;8.57;;;;;;;36.05;22.33;97241.66;4911792;28;20265;-75
2022/08/03 09:17:07;;;;;;;5.32;3.72;;;;;;;36.17;22.93;97238.34;4911228;28;20630;-75
2022/08/03 09:19:34;;;;;;;4.50;2.92;;;;;;;36.24;23.18;97238.25;4925709;28;20296;-75
2022/08/03 09:22:16;;;;;;;7.97;4.10;;;;;;;36.50;22.64;97235.84;4928073;28;20702;-75
2022/08/03 09:24:59;;;;;;;10.27;5.57;;;;;;;36.67;22.00;97232.06;4911886;28;20699;-75
2022/08/03 09:27:24;;;;;;;2.30;2.08;;;;;;;37.15;22.26;97242.75;4927445;28;20437;-75
2022/08/03 09:29:54;;;;;;;2.67;2.58;;;;;;;37.29;21.42;97245.19;4927977;28;20360;-75
2022/08/03 09:32:23;;;;;;;2.25;2.13;;;;;;;37.57;20.82;97241.06;4929368;28;20743;-75
2022/08/03 09:34:52;;;;;;;2.97;2.78;;;;;;;37.48;20.96;97243.63;4927755;28;20201;-75
2022/08/03 09:37:19;;;;;;;2.80;2.60;;;;;;;37.29;21.09;97231.59;4911288;28;20316;-75
2022/08/03 09:39:45;;;;;;;3.75;2.60;;;;;;;36.88;22.56;97236.31;4927733;28;20200;-76
2022/08/03 09:42:11;;;;;;;2.90;2.70;;;;;;;37.17;21.40;97237.66;4928583;28;20317;-75
2022/08/03 09:44:39;;;;;;;2.88;2.78;;;;;;;37.23;21.51;97242.22;4902767;28;20201;-75
2022/08/03 09:47:05;;;;;;;3.10;2.80;;;;;;;37.38;21.36;97233.75;4907700;28;20639;-75
2022/08/03 09:49:31;;;;;;;9.13;4.70;;;;;;;37.40;20.86;97236.81;4911224;28;20162;-75
2022/08/03 09:52:00;;;;;;;31.85;12.65;;;;;;;36.79;21.87;97229.91;4910775;28;20274;-76
2022/08/03 09:54:30;;;;;;;2.50;2.30;;;;;;;37.28;21.42;97230.84;4927493;28;20279;-75
2022/08/03 09:56:57;;;;;;;4.22;2.33;;;;;;;37.43;20.83;97228.59;4926180;28;20607;-75
2022/08/03 09:59:28;;;;;;;2.15;2.05;;;;;;;37.62;20.78;97229.69;4928675;28;20197;-75
2022/08/03 10:01:54;;;;;;;2.40;2.30;;;;;;;37.77;21.64;97227.44;4926911;28;20709;-76
2022/08/03 10:04:20;;;;;;;2.35;2.15;;;;;;;37.79;20.75;97230.50;4911404;28;20223;-76
2022/08/03 10:07:02;;;;;;;2.22;2.13;;;;;;;37.79;20.75;97229.75;4928855;28;20702;-75
2022/08/03 10:09:27;;;;;;;3.08;2.53;;;;;;;37.90;20.05;97224.03;4928409;28;20162;-76
2022/08/03 10:11:53;;;;;;;3.90;3.60;;;;;;;38.15;20.09;97221.50;4910584;28;20172;-75
2022/08/03 10:14:19;;;;;;;50.33;45.40;;;;;;;38.52;19.76;97216.63;4926129;28;20192;-74
2022/08/03 10:16:45;;;;;;;13.63;12.30;;;;;;;38.95;19.32;97223.63;4926354;28;20646;-76
2022/08/03 10:19:12;;;;;;;4.47;4.20;;;;;;;38.78;19.51;97219.44;4921096;28;20174;-75
2022/08/03 10:21:39;;;;;;;3.22;3.03;;;;;;;38.57;20.15;97215.34;4893989;28;20200;-75
2022/08/03 10:24:07;;;;;;;2.70;2.50;;;;;;;38.27;20.24;97214.59;4909890;28;20634;-76
2022/08/03 10:26:34;;;;;;;3.13;2.92;;;;;;;38.51;20.19;97204.22;4909642;28;20467;-75
2022/08/03 10:29:03;;;;;;;3.03;2.83;;;;;;;38.73;19.96;97214.53;4910244;28;20672;-75
2022/08/03 10:31:38;;;;;;;4.07;2.72;;;;;;;38.33;19.88;97203.94;4926287;28;20195;-75
2022/08/03 10:34:07;;;;;;;2.72;2.60;;;;;;;38.10;20.87;97189.34;4910277;28;20275;-76
2022/08/03 10:36:35;;;;;;;3.10;2.90;;;;;;;37.10;21.42;97190.50;4925810;28;20217;-75
2022/08/03 10:39:01;;;;;;;3.03;2.83;;;;;;;38.08;20.24;97194.47;4893614;28;20282;-75
2022/08/03 10:41:31;;;;;;;2.53;2.42;;;;;;;38.55;20.10;97188.56;4925919;28;20204;-76
2022/08/03 10:44:08;;;;;;;2.35;2.25;;;;;;;38.18;20.28;97185.28;4906330;28;20229;-76
2022/08/03 10:46:35;;;;;;;2.17;2.08;;;;;;;38.46;20.12;97177.56;4905949;28;20656;-75
2022/08/03 10:49:01;;;;;;;4.47;2.40;;;;;;;39.04;19.46;97182.19;4906277;28;20269;-75
2022/08/03 10:51:30;;;;;;;2.50;2.30;;;;;;;38.98;18.68;97178.44;4924142;28;20195;-75
2022/08/03 10:53:57;;;;;;;2.78;2.67;;;;;;;39.16;18.89;97175.22;4941984;28;20205;-75
2022/08/03 10:59:16;;;;;;;2.75;2.60;;;;;;;39.26;18.37;97165.94;4927623;28;20662;-75
2022/08/03 11:01:54;;;;;;;2.75;2.65;;;;;;;39.32;19.09;97168.88;4925590;28;20130;-76
2022/08/03 11:04:20;;;;;;;2.80;2.60;;;;;;;39.53;18.26;97166.72;4909665;28;20166;-75
2022/08/03 11:06:47;;;;;;;2.78;2.58;;;;;;;39.39;19.29;97168.66;4908516;28;20639;-75
2022/08/03 11:09:12;;;;;;;2.70;2.53;;;;;;;38.85;19.19;97166.75;4925461;28;20752;-76
2022/08/03 11:11:42;;;;;;;2.40;2.30;;;;;;;39.66;18.44;97162.75;4925340;28;20269;-75
2022/08/03 11:14:10;;;;;;;2.70;2.50;;;;;;;39.72;18.04;97157.50;4925903;28;20338;-75
2022/08/03 11:16:45;;;;;;;2.95;2.75;;;;;;;38.51;19.29;97163.41;4926897;28;20166;-75
2022/08/03 11:19:16;;;;;;;3.15;2.60;;;;;;;38.81;19.91;97153.25;4925155;28;20216;-75
2022/08/03 11:21:48;;;;;;;2.75;2.55;;;;;;;38.65;19.20;97150.63;4909181;28;20259;-75
2022/08/03 11:24:39;;;;;;;2.50;2.40;;;;;;;38.52;19.84;97145.88;4909385;28;20256;-75
2022/08/03 11:27:13;;;;;;;2.67;2.58;;;;;;;38.57;19.53;97150.78;4924641;28;20198;-75
2022/08/03 11:30:06;;;;;;;2.63;2.53;;;;;;;38.64;19.68;97143.66;4925492;28;20824;-75
2022/08/03 11:32:42;;;;;;;2.72;2.63;;;;;;;38.48;19.48;97147.19;4924975;28;20244;-75
2022/08/03 11:35:29;;;;;;;2.97;2.38;;;;;;;38.16;19.86;97152.31;4924318;28;20156;-75
2022/08/03 11:37:57;;;;;;;2.38;2.28;;;;;;;38.27;19.56;97149.31;4922734;28;20235;-75
2022/08/03 11:40:45;;;;;;;2.78;2.47;;;;;;;37.90;19.86;97147.94;4924868;28;20170;-75
2022/08/03 11:43:28;;;;;;;2.30;2.20;;;;;;;37.77;19.79;97137.00;4924680;28;20639;-75
2022/08/03 11:46:17;;;;;;;2.33;2.22;;;;;;;37.71;20.01;97141.44;4923881;28;20643;-75